Terminal Aerodrome Forecast
Issued by NWS Shreveport, LA

Home | Current Version | Previous Version | Text Only | Print | Product List | Glossary On
Versions: 1 2 3 4 5 6 7 8 9 10 11 12 13 14 15
000
FTUS44 KSHV 211149
TAFMLU
TAF
KMLU 211149Z 2112/2212 21005KT P6SM BKN100
     FM211500 25004KT P6SM SCT025 BKN150
     FM211800 24005KT P6SM SCT035 BKN150 BKN250
     FM212100 24006KT P6SM VCTS BKN040CB BKN150 BKN250
     FM220100 00000KT P6SM FEW150 SCT250=

USA.gov is the U.S. government's official web portal to all federal, state and local government web resources and services.